sensor_id;sensor_type;location;lat;lon;timestamp;pressure;altitude;pressure_sealevel;temperature;humidity
74627;BME280;63132;52.268;5.192;2023-03-30T00:00:05;100424.47;;;12.92;67.05
74627;BME280;63132;52.268;5.192;2023-03-30T00:02:44;100417.16;;;12.94;66.82
74627;BME280;63132;52.268;5.192;2023-03-30T00:05:09;100416.09;;;13.05;66.50
74627;BME280;63132;52.268;5.192;2023-03-30T00:07:35;100412.03;;;13.01;66.27
74627;BME280;63132;52.268;5.192;2023-03-30T00:10:03;100415.72;;;13.00;65.95
74627;BME280;63132;52.268;5.192;2023-03-30T00:12:30;100395.81;;;13.12;65.00
74627;BME280;63132;52.268;5.192;2023-03-30T00:14:56;100397.91;;;13.19;64.41
74627;BME280;63132;52.268;5.192;2023-03-30T00:17:21;100393.19;;;13.02;65.25
74627;BME280;63132;52.268;5.192;2023-03-30T00:19:47;100395.91;;;13.21;63.58
74627;BME280;63132;52.268;5.192;2023-03-30T00:22:12;100391.72;;;13.18;63.75
74627;BME280;63132;52.268;5.192;2023-03-30T00:24:38;100386.47;;;13.26;63.47
74627;BME280;63132;52.268;5.192;2023-03-30T00:27:03;100382.50;;;13.31;63.06
74627;BME280;63132;52.268;5.192;2023-03-30T00:29:29;100400.56;;;13.19;63.60
74627;BME280;63132;52.268;5.192;2023-03-30T00:31:54;100400.63;;;13.27;62.88
74627;BME280;63132;52.268;5.192;2023-03-30T00:34:20;100385.47;;;13.28;62.73
74627;BME280;63132;52.268;5.192;2023-03-30T00:36:45;100383.09;;;13.24;63.02
74627;BME280;63132;52.268;5.192;2023-03-30T00:39:13;100371.56;;;13.24;62.81
74627;BME280;63132;52.268;5.192;2023-03-30T00:41:38;100379.84;;;13.31;62.57
74627;BME280;63132;52.268;5.192;2023-03-30T00:44:05;100381.50;;;13.13;62.94
74627;BME280;63132;52.268;5.192;2023-03-30T00:46:31;100386.47;;;13.26;62.25
74627;BME280;63132;52.268;5.192;2023-03-30T00:49:00;100388.13;;;13.28;62.29
74627;BME280;63132;52.268;5.192;2023-03-30T00:51:34;100391.81;;;13.26;62.12
74627;BME280;63132;52.268;5.192;2023-03-30T00:54:08;100389.28;;;13.25;62.17
74627;BME280;63132;52.268;5.192;2023-03-30T00:56:36;100390.53;;;13.31;62.04
74627;BME280;63132;52.268;5.192;2023-03-30T00:59:02;100386.00;;;13.31;61.95
74627;BME280;63132;52.268;5.192;2023-03-30T01:01:28;100373.00;;;13.18;62.48
74627;BME280;63132;52.268;5.192;2023-03-30T01:03:56;100370.34;;;13.18;62.48
74627;BME280;63132;52.268;5.192;2023-03-30T01:06:25;100360.13;;;13.13;62.71
74627;BME280;63132;52.268;5.192;2023-03-30T01:08:54;100367.03;;;13.06;63.15
74627;BME280;63132;52.268;5.192;2023-03-30T01:11:19;100363.88;;;12.93;63.54
74627;BME280;63132;52.268;5.192;2023-03-30T01:13:48;100366.53;;;12.93;63.53
74627;BME280;63132;52.268;5.192;2023-03-30T01:22:02;100353.88;;;12.95;64.00
74627;BME280;63132;52.268;5.192;2023-03-30T01:39:17;100344.91;;;12.96;64.28
74627;BME280;63132;52.268;5.192;2023-03-30T01:44:40;100348.00;;;12.91;64.64
74627;BME280;63132;52.268;5.192;2023-03-30T01:47:20;100346.56;;;12.97;64.40
74627;BME280;63132;52.268;5.192;2023-03-30T01:52:39;100327.47;;;12.73;65.10
74627;BME280;63132;52.268;5.192;2023-03-30T01:57:54;100323.69;;;12.66;65.98
74627;BME280;63132;52.268;5.192;2023-03-30T02:00:22;100317.13;;;12.60;66.02
74627;BME280;63132;52.268;5.192;2023-03-30T02:02:56;100323.22;;;12.52;66.50
74627;BME280;63132;52.268;5.192;2023-03-30T02:05:25;100318.16;;;12.49;66.85
74627;BME280;63132;52.268;5.192;2023-03-30T02:08:01;100325.91;;;12.52;67.12
74627;BME280;63132;52.268;5.192;2023-03-30T02:10:32;100320.41;;;12.54;67.17
74627;BME280;63132;52.268;5.192;2023-03-30T02:12:58;100320.00;;;12.49;67.34
74627;BME280;63132;52.268;5.192;2023-03-30T02:15:29;100317.63;;;12.46;67.62
74627;BME280;63132;52.268;5.192;2023-03-30T02:17:57;100307.66;;;12.48;67.36
74627;BME280;63132;52.268;5.192;2023-03-30T02:20:23;100307.75;;;12.56;67.07
74627;BME280;63132;52.268;5.192;2023-03-30T02:22:48;100307.06;;;12.54;67.03
74627;BME280;63132;52.268;5.192;2023-03-30T02:25:14;100301.03;;;12.52;67.07
74627;BME280;63132;52.268;5.192;2023-03-30T02:27:40;100303.69;;;12.52;66.99
74627;BME280;63132;52.268;5.192;2023-03-30T02:30:07;100301.03;;;12.52;67.00
74627;BME280;63132;52.268;5.192;2023-03-30T02:32:39;100309.88;;;12.52;66.87
74627;BME280;63132;52.268;5.192;2023-03-30T02:35:17;100316.19;;;12.51;66.80
74627;BME280;63132;52.268;5.192;2023-03-30T02:48:38;100320.41;;;12.54;66.17
74627;BME280;63132;52.268;5.192;2023-03-30T02:51:18;100319.25;;;12.57;66.19
74627;BME280;63132;52.268;5.192;2023-03-30T02:59:18;100304.41;;;12.54;65.69
74627;BME280;63132;52.268;5.192;2023-03-30T03:01:49;100308.00;;;12.63;65.21
74627;BME280;63132;52.268;5.192;2023-03-30T03:04:16;100305.91;;;12.57;65.74
74627;BME280;63132;52.268;5.192;2023-03-30T03:06:43;100312.09;;;12.57;65.70
74627;BME280;63132;52.268;5.192;2023-03-30T03:09:09;100309.59;;;12.55;66.04
74627;BME280;63132;52.268;5.192;2023-03-30T03:11:34;100296.19;;;12.65;66.18
74627;BME280;63132;52.268;5.192;2023-03-30T03:14:00;100309.28;;;12.59;66.48
74627;BME280;63132;52.268;5.192;2023-03-30T03:16:25;100311.66;;;12.62;66.25
74627;BME280;63132;52.268;5.192;2023-03-30T03:18:51;100298.44;;;12.60;66.56
74627;BME280;63132;52.268;5.192;2023-03-30T03:21:16;100295.94;;;12.59;66.52
74627;BME280;63132;52.268;5.192;2023-03-30T03:23:42;100275.13;;;12.62;66.99
74627;BME280;63132;52.268;5.192;2023-03-30T03:26:08;100277.03;;;12.52;67.03
74627;BME280;63132;52.268;5.192;2023-03-30T03:28:34;100276.38;;;12.40;67.78
74627;BME280;63132;52.268;5.192;2023-03-30T03:31:00;100282.56;;;12.40;67.99
74627;BME280;63132;52.268;5.192;2023-03-30T03:33:29;100289.59;;;12.31;68.38
74627;BME280;63132;52.268;5.192;2023-03-30T03:35:56;100283.97;;;12.35;68.33
74627;BME280;63132;52.268;5.192;2023-03-30T03:38:27;100280.47;;;12.34;68.75
74627;BME280;63132;52.268;5.192;2023-03-30T03:40:55;100271.50;;;12.35;68.80
74627;BME280;63132;52.268;5.192;2023-03-30T03:43:21;100277.97;;;12.33;68.68
74627;BME280;63132;52.268;5.192;2023-03-30T03:45:48;100262.81;;;12.33;68.87
74627;BME280;63132;52.268;5.192;2023-03-30T03:48:15;100259.28;;;12.33;68.92
74627;BME280;63132;52.268;5.192;2023-03-30T03:50:41;100271.38;;;12.27;68.93
74627;BME280;63132;52.268;5.192;2023-03-30T03:53:07;100254.66;;;12.35;68.78
74627;BME280;63132;52.268;5.192;2023-03-30T03:55:33;100251.03;;;12.26;69.26
74627;BME280;63132;52.268;5.192;2023-03-30T03:58:03;100251.72;;;12.28;69.34
74627;BME280;63132;52.268;5.192;2023-03-30T04:00:28;100247.69;;;12.24;69.55
74627;BME280;63132;52.268;5.192;2023-03-30T04:02:54;100250.03;;;12.27;69.75
74627;BME280;63132;52.268;5.192;2023-03-30T04:05:20;100253.44;;;12.19;69.97
74627;BME280;63132;52.268;5.192;2023-03-30T04:07:45;100248.28;;;12.17;70.05
74627;BME280;63132;52.268;5.192;2023-03-30T04:10:11;100257.34;;;12.25;70.14
74627;BME280;63132;52.268;5.192;2023-03-30T04:12:37;100246.91;;;12.31;70.00
74627;BME280;63132;52.268;5.192;2023-03-30T04:15:03;100263.50;;;12.35;70.15
74627;BME280;63132;52.268;5.192;2023-03-30T04:17:29;100259.59;;;12.29;70.14
74627;BME280;63132;52.268;5.192;2023-03-30T04:20:00;100253.81;;;12.34;70.39
74627;BME280;63132;52.268;5.192;2023-03-30T04:22:31;100253.06;;;12.42;70.26
74627;BME280;63132;52.268;5.192;2023-03-30T04:25:10;100262.19;;;12.39;70.40
74627;BME280;63132;52.268;5.192;2023-03-30T04:27:41;100250.69;;;12.39;70.72
74627;BME280;63132;52.268;5.192;2023-03-30T04:30:08;100237.22;;;12.40;70.86
74627;BME280;63132;52.268;5.192;2023-03-30T04:32:34;100253.06;;;12.42;70.68
74627;BME280;63132;52.268;5.192;2023-03-30T04:35:07;100244.75;;;12.45;70.78
74627;BME280;63132;52.268;5.192;2023-03-30T04:37:33;100250.25;;;12.43;70.91
74627;BME280;63132;52.268;5.192;2023-03-30T04:40:00;100246.88;;;12.41;71.05
74627;BME280;63132;52.268;5.192;2023-03-30T04:42:27;100241.53;;;12.41;71.10
74627;BME280;63132;52.268;5.192;2023-03-30T04:44:59;100236.22;;;12.41;71.25
74627;BME280;63132;52.268;5.192;2023-03-30T04:47:26;100225.84;;;12.38;71.29
74627;BME280;63132;52.268;5.192;2023-03-30T04:49:52;100233.47;;;12.33;72.25
74627;BME280;63132;52.268;5.192;2023-03-30T04:52:17;100229.59;;;12.17;73.59
74627;BME280;63132;52.268;5.192;2023-03-30T04:54:43;100243.13;;;11.96;74.56
74627;BME280;63132;52.268;5.192;2023-03-30T04:57:09;100251.88;;;11.78;75.92
74627;BME280;63132;52.268;5.192;2023-03-30T04:59:34;100253.56;;;11.69;76.40
74627;BME280;63132;52.268;5.192;2023-03-30T05:02:00;100245.19;;;11.64;76.80
74627;BME280;63132;52.268;5.192;2023-03-30T05:04:27;100253.34;;;11.53;77.63
74627;BME280;63132;52.268;5.192;2023-03-30T05:06:52;100248.00;;;11.43;77.92
74627;BME280;63132;52.268;5.192;2023-03-30T05:09:18;100234.84;;;11.41;77.96
74627;BME280;63132;52.268;5.192;2023-03-30T05:11:43;100234.16;;;11.39;77.79
74627;BME280;63132;52.268;5.192;2023-03-30T05:14:08;100247.47;;;11.39;78.16
74627;BME280;63132;52.268;5.192;2023-03-30T05:16:34;100240.72;;;11.25;78.69
74627;BME280;63132;52.268;5.192;2023-03-30T05:18:59;100241.19;;;11.20;78.91
74627;BME280;63132;52.268;5.192;2023-03-30T05:21:26;100239.06;;;11.14;78.90
74627;BME280;63132;52.268;5.192;2023-03-30T05:23:52;100234.16;;;11.09;78.99
74627;BME280;63132;52.268;5.192;2023-03-30T05:26:17;100246.09;;;11.05;78.97
74627;BME280;63132;52.268;5.192;2023-03-30T05:28:42;100243.97;;;10.99;79.05
74627;BME280;63132;52.268;5.192;2023-03-30T05:31:08;100240.03;;;10.93;79.12
74627;BME280;63132;52.268;5.192;2023-03-30T05:33:33;100248.00;;;10.83;79.35
74627;BME280;63132;52.268;5.192;2023-03-30T05:35:59;100255.84;;;10.85;79.34
74627;BME280;63132;52.268;5.192;2023-03-30T05:38:27;100247.75;;;10.76;79.33
74627;BME280;63132;52.268;5.192;2023-03-30T05:40:53;100253.59;;;10.70;79.55
74627;BME280;63132;52.268;5.192;2023-03-30T05:43:18;100257.25;;;10.69;79.42
74627;BME280;63132;52.268;5.192;2023-03-30T05:45:44;100254.13;;;10.64;79.49
74627;BME280;63132;52.268;5.192;2023-03-30T05:48:12;100261.16;;;10.65;79.53
74627;BME280;63132;52.268;5.192;2023-03-30T05:50:38;100274.03;;;10.70;79.30
74627;BME280;63132;52.268;5.192;2023-03-30T05:53:03;100267.88;;;10.69;79.00
74627;BME280;63132;52.268;5.192;2023-03-30T05:55:34;100261.97;;;10.65;78.83
74627;BME280;63132;52.268;5.192;2023-03-30T05:57:59;100270.94;;;10.64;78.72
74627;BME280;63132;52.268;5.192;2023-03-30T06:00:25;100264.78;;;10.64;78.56
74627;BME280;63132;52.268;5.192;2023-03-30T06:02:53;100272.22;;;10.70;78.15
74627;BME280;63132;52.268;5.192;2023-03-30T06:05:18;100265.91;;;10.71;77.59
74627;BME280;63132;52.268;5.192;2023-03-30T06:07:43;100267.03;;;10.69;77.69
74627;BME280;63132;52.268;5.192;2023-03-30T06:10:10;100267.47;;;10.74;77.33
74627;BME280;63132;52.268;5.192;2023-03-30T06:12:37;100271.13;;;10.73;77.15
74627;BME280;63132;52.268;5.192;2023-03-30T06:15:06;100269.84;;;10.77;76.90
74627;BME280;63132;52.268;5.192;2023-03-30T06:17:34;100284.69;;;10.80;76.83
74627;BME280;63132;52.268;5.192;2023-03-30T06:20:04;100286.38;;;10.81;76.57
74627;BME280;63132;52.268;5.192;2023-03-30T06:22:34;100282.34;;;10.96;75.70
74627;BME280;63132;52.268;5.192;2023-03-30T06:24:59;100284.34;;;11.24;75.14
74627;BME280;63132;52.268;5.192;2023-03-30T06:27:25;100285.56;;;11.49;74.05
74627;BME280;63132;52.268;5.192;2023-03-30T06:29:50;100291.00;;;11.78;72.96
74627;BME280;63132;52.268;5.192;2023-03-30T06:32:15;100284.13;;;11.85;73.06
74627;BME280;63132;52.268;5.192;2023-03-30T06:34:41;100294.47;;;11.98;72.11
74627;BME280;63132;52.268;5.192;2023-03-30T06:37:06;100300.91;;;11.95;72.41
74627;BME280;63132;52.268;5.192;2023-03-30T06:39:33;100288.28;;;11.98;72.12
74627;BME280;63132;52.268;5.192;2023-03-30T06:42:01;100294.09;;;11.83;72.27
74627;BME280;63132;52.268;5.192;2023-03-30T06:44:27;100304.59;;;11.84;72.32
74627;BME280;63132;52.268;5.192;2023-03-30T06:46:53;100288.38;;;11.68;72.69
74627;BME280;63132;52.268;5.192;2023-03-30T06:49:18;100300.13;;;11.65;72.67
74627;BME280;63132;52.268;5.192;2023-03-30T06:51:44;100298.63;;;11.63;72.48
74627;BME280;63132;52.268;5.192;2023-03-30T06:54:09;100311.50;;;11.57;72.72
74627;BME280;63132;52.268;5.192;2023-03-30T06:56:35;100317.13;;;11.64;72.70
74627;BME280;63132;52.268;5.192;2023-03-30T06:59:01;100317.97;;;11.55;72.50
74627;BME280;63132;52.268;5.192;2023-03-30T07:01:27;100307.97;;;11.67;72.32
74627;BME280;63132;52.268;5.192;2023-03-30T07:03:52;100303.50;;;11.67;71.96
74627;BME280;63132;52.268;5.192;2023-03-30T07:06:17;100304.91;;;11.62;72.51
74627;BME280;63132;52.268;5.192;2023-03-30T07:08:43;100312.50;;;11.66;72.54
74627;BME280;63132;52.268;5.192;2023-03-30T07:11:09;100339.97;;;11.67;72.32
74627;BME280;63132;52.268;5.192;2023-03-30T07:13:34;100326.38;;;11.60;72.56
74627;BME280;63132;52.268;5.192;2023-03-30T07:16:00;100332.81;;;11.77;72.26
74627;BME280;63132;52.268;5.192;2023-03-30T07:18:26;100337.13;;;11.88;71.59
74627;BME280;63132;52.268;5.192;2023-03-30T07:20:51;100332.50;;;12.10;70.97
74627;BME280;63132;52.268;5.192;2023-03-30T07:23:17;100351.84;;;12.02;71.40
74627;BME280;63132;52.268;5.192;2023-03-30T07:25:43;100351.16;;;12.00;70.96
74627;BME280;63132;52.268;5.192;2023-03-30T07:28:09;100344.97;;;12.00;71.03
74627;BME280;63132;52.268;5.192;2023-03-30T07:30:35;100350.06;;;11.83;71.31
74627;BME280;63132;52.268;5.192;2023-03-30T07:33:00;100354.75;;;12.09;70.58
74627;BME280;63132;52.268;5.192;2023-03-30T07:35:26;100351.00;;;11.92;71.13
74627;BME280;63132;52.268;5.192;2023-03-30T07:37:52;100353.38;;;12.15;70.96
74627;BME280;63132;52.268;5.192;2023-03-30T07:40:18;100362.13;;;12.45;69.83
74627;BME280;63132;52.268;5.192;2023-03-30T07:42:43;100359.78;;;12.32;69.94
74627;BME280;63132;52.268;5.192;2023-03-30T07:45:09;100368.50;;;12.34;69.74
74627;BME280;63132;52.268;5.192;2023-03-30T07:47:35;100364.69;;;12.37;69.60
74627;BME280;63132;52.268;5.192;2023-03-30T07:50:01;100365.66;;;12.36;69.89
74627;BME280;63132;52.268;5.192;2023-03-30T07:52:26;100376.97;;;12.58;68.75
74627;BME280;63132;52.268;5.192;2023-03-30T07:54:52;100386.81;;;12.85;67.76
74627;BME280;63132;52.268;5.192;2023-03-30T07:57:19;100380.75;;;12.93;67.56
74627;BME280;63132;52.268;5.192;2023-03-30T07:59:45;100379.13;;;12.82;67.66
74627;BME280;63132;52.268;5.192;2023-03-30T08:02:16;100382.75;;;12.81;67.95
74627;BME280;63132;52.268;5.192;2023-03-30T08:04:42;100378.22;;;12.92;67.02
74627;BME280;63132;52.268;5.192;2023-03-30T08:07:08;100392.78;;;12.79;67.68
74627;BME280;63132;52.268;5.192;2023-03-30T08:09:34;100397.22;;;12.88;67.23
74627;BME280;63132;52.268;5.192;2023-03-30T08:12:00;100401.38;;;12.63;67.44
74627;BME280;63132;52.268;5.192;2023-03-30T08:14:25;100393.34;;;12.73;67.55
74627;BME280;63132;52.268;5.192;2023-03-30T08:16:54;100392.50;;;12.72;67.56
74627;BME280;63132;52.268;5.192;2023-03-30T08:19:22;100393.91;;;12.76;67.43
74627;BME280;63132;52.268;5.192;2023-03-30T08:21:48;100390.44;;;12.94;67.21
74627;BME280;63132;52.268;5.192;2023-03-30T08:24:14;100395.69;;;12.86;67.70
74627;BME280;63132;52.268;5.192;2023-03-30T08:26:40;100391.81;;;12.98;67.12
74627;BME280;63132;52.268;5.192;2023-03-30T08:29:06;100405.13;;;12.80;67.78
74627;BME280;63132;52.268;5.192;2023-03-30T08:31:31;100396.22;;;12.51;68.65
74627;BME280;63132;52.268;5.192;2023-03-30T08:33:57;100397.50;;;12.47;68.89
74627;BME280;63132;52.268;5.192;2023-03-30T08:36:23;100391.34;;;12.47;69.30
74627;BME280;63132;52.268;5.192;2023-03-30T08:38:48;100398.50;;;12.46;69.40
74627;BME280;63132;52.268;5.192;2023-03-30T08:41:27;100412.59;;;12.28;69.57
74627;BME280;63132;52.268;5.192;2023-03-30T08:44:32;100399.63;;;12.43;69.29
74627;BME280;63132;52.268;5.192;2023-03-30T08:47:00;100399.94;;;12.40;69.20
74627;BME280;63132;52.268;5.192;2023-03-30T08:49:27;100382.75;;;12.53;69.23
74627;BME280;63132;52.268;5.192;2023-03-30T08:51:55;100416.19;;;12.47;69.34
74627;BME280;63132;52.268;5.192;2023-03-30T08:54:21;100401.19;;;12.46;69.18
74627;BME280;63132;52.268;5.192;2023-03-30T09:02:27;100428.47;;;12.68;69.11
74627;BME280;63132;52.268;5.192;2023-03-30T09:04:58;100416.69;;;12.71;68.16
74627;BME280;63132;52.268;5.192;2023-03-30T09:07:38;100418.47;;;12.80;68.53
74627;BME280;63132;52.268;5.192;2023-03-30T09:10:15;100429.44;;;13.05;67.52
74627;BME280;63132;52.268;5.192;2023-03-30T09:12:49;100419.75;;;13.04;66.57
74627;BME280;63132;52.268;5.192;2023-03-30T09:15:18;100408.53;;;13.29;66.76
74627;BME280;63132;52.268;5.192;2023-03-30T09:17:47;100411.59;;;13.52;65.40
74627;BME280;63132;52.268;5.192;2023-03-30T09:20:19;100424.88;;;13.44;64.51
74627;BME280;63132;52.268;5.192;2023-03-30T09:22:47;100427.81;;;13.22;64.95
74627;BME280;63132;52.268;5.192;2023-03-30T09:30:27;100435.56;;;13.16;65.04
74627;BME280;63132;52.268;5.192;2023-03-30T09:33:02;100431.63;;;13.20;64.33
74627;BME280;63132;52.268;5.192;2023-03-30T09:35:39;100429.75;;;13.48;63.37
74627;BME280;63132;52.268;5.192;2023-03-30T09:38:09;100434.69;;;13.71;62.38
74627;BME280;63132;52.268;5.192;2023-03-30T09:43:57;100438.91;;;14.72;59.66
74627;BME280;63132;52.268;5.192;2023-03-30T09:46:23;100454.44;;;14.87;59.16
74627;BME280;63132;52.268;5.192;2023-03-30T09:48:49;100451.25;;;14.65;59.66
74627;BME280;63132;52.268;5.192;2023-03-30T09:51:25;100449.25;;;14.59;59.44
74627;BME280;63132;52.268;5.192;2023-03-30T09:53:58;100454.59;;;14.14;60.42
74627;BME280;63132;52.268;5.192;2023-03-30T09:56:47;100457.56;;;14.29;60.34
74627;BME280;63132;52.268;5.192;2023-03-30T10:01:44;100459.53;;;14.80;58.61
74627;BME280;63132;52.268;5.192;2023-03-30T10:04:10;100454.25;;;14.62;58.99
74627;BME280;63132;52.268;5.192;2023-03-30T10:06:44;100456.72;;;14.55;59.09
74627;BME280;63132;52.268;5.192;2023-03-30T10:09:11;100462.97;;;14.64;58.75
74627;BME280;63132;52.268;5.192;2023-03-30T10:11:42;100456.31;;;14.41;57.11
74627;BME280;63132;52.268;5.192;2023-03-30T10:16:45;100470.81;;;14.84;57.23
74627;BME280;63132;52.268;5.192;2023-03-30T10:19:15;100467.06;;;14.76;56.98
74627;BME280;63132;52.268;5.192;2023-03-30T10:21:40;100491.13;;;14.23;57.75
74627;BME280;63132;52.268;5.192;2023-03-30T10:26:39;100467.47;;;14.37;57.70
74627;BME280;63132;52.268;5.192;2023-03-30T10:29:12;100475.78;;;14.78;57.20
74627;BME280;63132;52.268;5.192;2023-03-30T10:31:42;100470.81;;;14.84;57.20
74627;BME280;63132;52.268;5.192;2023-03-30T10:34:17;100484.69;;;14.61;57.46
74627;BME280;63132;52.268;5.192;2023-03-30T10:36:46;100486.13;;;14.47;58.19
74627;BME280;63132;52.268;5.192;2023-03-30T10:39:28;100487.88;;;14.38;57.40
74627;BME280;63132;52.268;5.192;2023-03-30T10:41:59;100470.25;;;14.27;57.55
74627;BME280;63132;52.268;5.192;2023-03-30T10:44:40;100479.22;;;14.44;57.24
74627;BME280;63132;52.268;5.192;2023-03-30T10:50:39;100479.84;;;14.83;56.69
74627;BME280;63132;52.268;5.192;2023-03-30T11:05:02;100487.44;;;15.31;55.70
74627;BME280;63132;52.268;5.192;2023-03-30T11:10:37;100478.69;;;14.85;56.61
74627;BME280;63132;52.268;5.192;2023-03-30T11:13:35;100495.28;;;14.89;55.74
74627;BME280;63132;52.268;5.192;2023-03-30T11:16:18;100485.88;;;14.85;55.95
74627;BME280;63132;52.268;5.192;2023-03-30T11:18:55;100496.88;;;14.82;55.68
74627;BME280;63132;52.268;5.192;2023-03-30T11:21:45;100492.84;;;14.77;56.47
74627;BME280;63132;52.268;5.192;2023-03-30T11:24:23;100493.56;;;15.14;55.23
74627;BME280;63132;52.268;5.192;2023-03-30T11:37:40;100514.56;;;14.74;57.20
74627;BME280;63132;52.268;5.192;2023-03-30T11:40:19;100530.00;;;14.80;56.21
74627;BME280;63132;52.268;5.192;2023-03-30T11:42:47;100518.38;;;14.90;56.73
74627;BME280;63132;52.268;5.192;2023-03-30T11:45:35;100514.56;;;15.01;56.34
74627;BME280;63132;52.268;5.192;2023-03-30T11:56:28;100532.09;;;14.87;56.58
74627;BME280;63132;52.268;5.192;2023-03-30T11:59:03;100523.53;;;14.65;57.72
74627;BME280;63132;52.268;5.192;2023-03-30T12:04:22;100546.53;;;14.76;57.38
74627;BME280;63132;52.268;5.192;2023-03-30T12:06:56;100534.50;;;14.80;57.66
74627;BME280;63132;52.268;5.192;2023-03-30T12:09:43;100533.22;;;15.46;56.00
74627;BME280;63132;52.268;5.192;2023-03-30T12:12:12;100532.56;;;15.52;56.40
74627;BME280;63132;52.268;5.192;2023-03-30T12:14:59;100539.94;;;15.58;55.13
74627;BME280;63132;52.268;5.192;2023-03-30T12:28:24;100541.97;;;16.25;53.87
74627;BME280;63132;52.268;5.192;2023-03-30T12:30:58;100520.41;;;15.74;54.73
74627;BME280;63132;52.268;5.192;2023-03-30T12:35:55;100532.88;;;16.01;54.46
74627;BME280;63132;52.268;5.192;2023-03-30T12:38:35;100530.94;;;15.68;55.32
74627;BME280;63132;52.268;5.192;2023-03-30T12:41:08;100536.06;;;15.53;56.44
74627;BME280;63132;52.268;5.192;2023-03-30T12:43:57;100544.16;;;15.61;56.06
74627;BME280;63132;52.268;5.192;2023-03-30T12:46:30;100536.53;;;15.39;56.55
74627;BME280;63132;52.268;5.192;2023-03-30T13:05:43;100546.38;;;15.31;57.22
74627;BME280;63132;52.268;5.192;2023-03-30T13:08:22;100541.66;;;14.71;59.20
74627;BME280;63132;52.268;5.192;2023-03-30T13:10:49;100549.75;;;14.53;59.61
74627;BME280;63132;52.268;5.192;2023-03-30T13:13:23;100538.47;;;14.67;59.51
74627;BME280;63132;52.268;5.192;2023-03-30T13:16:08;100530.81;;;14.99;59.00
74627;BME280;63132;52.268;5.192;2023-03-30T13:18:37;100525.41;;;14.46;60.10
74627;BME280;63132;52.268;5.192;2023-03-30T13:21:15;100531.47;;;14.48;61.06
74627;BME280;63132;52.268;5.192;2023-03-30T13:23:42;100529.88;;;14.19;61.56
74627;BME280;63132;52.268;5.192;2023-03-30T13:26:38;100527.59;;;14.24;63.28
74627;BME280;63132;52.268;5.192;2023-03-30T13:29:08;100520.53;;;14.41;63.27
74627;BME280;63132;52.268;5.192;2023-03-30T13:32:11;100521.25;;;14.25;62.80
74627;BME280;63132;52.268;5.192;2023-03-30T13:35:17;100520.72;;;14.22;62.88
74627;BME280;63132;52.268;5.192;2023-03-30T13:40:24;100506.78;;;15.16;60.28
74627;BME280;63132;52.268;5.192;2023-03-30T13:43:15;100519.13;;;15.44;59.14
74627;BME280;63132;52.268;5.192;2023-03-30T13:50:58;100506.13;;;15.14;58.67
74627;BME280;63132;52.268;5.192;2023-03-30T13:53:28;100501.25;;;15.09;58.87
74627;BME280;63132;52.268;5.192;2023-03-30T13:55:55;100501.81;;;15.30;58.32
74627;BME280;63132;52.268;5.192;2023-03-30T14:00:53;100512.28;;;15.06;58.59
74627;BME280;63132;52.268;5.192;2023-03-30T14:03:37;100512.56;;;15.38;57.67
74627;BME280;63132;52.268;5.192;2023-03-30T14:06:24;100507.06;;;15.39;56.74
74627;BME280;63132;52.268;5.192;2023-03-30T14:11:41;100509.59;;;15.49;56.58
74627;BME280;63132;52.268;5.192;2023-03-30T14:16:46;100517.19;;;15.62;55.74
74627;BME280;63132;52.268;5.192;2023-03-30T14:19:21;100518.28;;;15.43;56.44
74627;BME280;63132;52.268;5.192;2023-03-30T14:21:49;100521.41;;;14.95;56.94
74627;BME280;63132;52.268;5.192;2023-03-30T14:24:26;100510.19;;;14.91;57.55
74627;BME280;63132;52.268;5.192;2023-03-30T14:26:51;100505.63;;;14.84;58.20
74627;BME280;63132;52.268;5.192;2023-03-30T14:29:18;100502.38;;;14.98;57.94
74627;BME280;63132;52.268;5.192;2023-03-30T14:31:44;100510.19;;;14.91;58.42
74627;BME280;63132;52.268;5.192;2023-03-30T14:34:30;100496.69;;;15.01;57.73
74627;BME280;63132;52.268;5.192;2023-03-30T14:37:04;100499.34;;;15.01;57.73
74627;BME280;63132;52.268;5.192;2023-03-30T14:39:32;100513.84;;;15.17;57.58
74627;BME280;63132;52.268;5.192;2023-03-30T14:42:07;100509.03;;;14.94;57.94
74627;BME280;63132;52.268;5.192;2023-03-30T14:44:37;100498.59;;;15.18;57.49
74627;BME280;63132;52.268;5.192;2023-03-30T14:47:03;100502.94;;;15.70;56.53
74627;BME280;63132;52.268;5.192;2023-03-30T14:49:29;100501.97;;;15.28;56.65
74627;BME280;63132;52.268;5.192;2023-03-30T14:52:14;100507.84;;;15.23;57.10
74627;BME280;63132;52.268;5.192;2023-03-30T14:54:41;100521.13;;;15.07;57.65
74627;BME280;63132;52.268;5.192;2023-03-30T14:57:07;100501.72;;;15.05;57.50
74627;BME280;63132;52.268;5.192;2023-03-30T14:59:43;100515.34;;;14.85;58.03
74627;BME280;63132;52.268;5.192;2023-03-30T15:02:25;100512.06;;;14.99;58.08
74627;BME280;63132;52.268;5.192;2023-03-30T15:04:51;100533.81;;;14.96;57.84
74627;BME280;63132;52.268;5.192;2023-03-30T15:07:18;100506.06;;;15.06;57.81
74627;BME280;63132;52.268;5.192;2023-03-30T15:09:46;100510.03;;;15.28;57.45
74627;BME280;63132;52.268;5.192;2023-03-30T15:12:22;100502.19;;;15.35;57.85
74627;BME280;63132;52.268;5.192;2023-03-30T15:14:50;100501.78;;;15.65;56.99
74627;BME280;63132;52.268;5.192;2023-03-30T15:17:20;100490.88;;;15.66;56.46
74627;BME280;63132;52.268;5.192;2023-03-30T15:19:49;100494.00;;;15.36;56.98
74627;BME280;63132;52.268;5.192;2023-03-30T15:22:23;100496.88;;;15.60;57.10
74627;BME280;63132;52.268;5.192;2023-03-30T15:24:50;100498.19;;;15.47;57.03
74627;BME280;63132;52.268;5.192;2023-03-30T15:27:16;100503.69;;;15.37;56.99
74627;BME280;63132;52.268;5.192;2023-03-30T15:29:42;100496.34;;;15.05;57.84
74627;BME280;63132;52.268;5.192;2023-03-30T15:34:34;100512.13;;;14.81;58.59
74627;BME280;63132;52.268;5.192;2023-03-30T15:36:59;100492.44;;;14.90;58.83